Noatak Airport Noatak US
ICAO: PAWN
IATA:
Category: Medium
Scheduled Services:

Elevation: 88 ft
TransAlt. 18000 ft.

Airport Communications:
AWOS 3:135.75
ANCHORAGE CNTR:119.2
KOTZEBUE RDO:122.4
CTAF/UNICOM:122.8

PAWN Zoom In..

Runways:

(A) RW 01 length 3992 ft width 60 ft
---- / hdg 7

(B) RW 19 length 3992 ft width 60 ft
---- / hdg 187

Location; PAWN
Day. 26 / Time. 03.56 Zulu
* Altimeter: 29.69
* Temperature: 11° c. 51.8°f.
* Wind from: 270° Speed 06 kn.
Dewpoint: 04° c.
Visibility: 10 Statute Miles.
Clouds: Clear (automated report).

PAWN 260356Z AUTO 27006KT 10SM CLR 11/04 A2969 RMK AO2 SLP066 T01110039 $


Wind From 270°
Speed 06 kn.

 
 
jpsmedia.com for Web Design SOUNDCLOUD worldairports.se 2018   terms of use